< < Back
Terminal Aerodrome Forecast


Current Version              Previous Versions:   1  2  3  4  5  6  7  8  9  

Terminal Aerodrome Forecast

339
FTUS44 KBMX 270520
TAFMGM
TAF
KMGM 270520Z 2706/2806 15003KT P6SM SKC
     FM271000 15005KT P6SM BKN015
     FM271500 19008KT P6SM SCT030
     FM271800 19010KT P6SM VCTS SCT050CB=

Latest METAR

257
SAUS80 KWBC 271300
MTRMGM
METAR KMGM 271253Z 22003KT 10SM SCT007 27/23 A3006 RMK AO2 SLP178
T02670233


USA.gov is the U.S. government's official web portal to all federal, state and local government web resources and services.